createdAt,value
2022-10-18T00:00:48.466Z,87.53
2022-10-18T00:03:19.239Z,86.75
2022-10-18T00:05:50.688Z,87.01
2022-10-18T00:08:22.721Z,88.08
2022-10-18T00:10:53.285Z,86.34
2022-10-18T00:13:24.293Z,84.55
2022-10-18T00:15:59.372Z,82.46
2022-10-18T00:18:31.144Z,83.48
2022-10-18T00:21:03.916Z,87.88
2022-10-18T00:23:35.185Z,92.61
2022-10-18T00:26:08.820Z,91.52
2022-10-18T00:28:39.847Z,90.63
2022-10-18T00:31:18.982Z,89.53
2022-10-18T00:33:52.681Z,88.93
2022-10-18T00:36:23.519Z,87.60
2022-10-18T00:38:54.894Z,86.95
2022-10-18T00:41:27.808Z,86.04
2022-10-18T00:44:00.799Z,85.20
2022-10-18T00:46:36.546Z,84.23
2022-10-18T00:49:10.760Z,83.78
2022-10-18T00:51:46.518Z,83.40
2022-10-18T00:54:19.765Z,82.95
2022-10-18T00:56:50.625Z,82.40
2022-10-18T00:59:22.285Z,81.98
2022-10-18T01:01:55.678Z,81.58
2022-10-18T01:04:26.977Z,81.26
2022-10-18T01:07:04.079Z,80.79
2022-10-18T01:09:42.959Z,80.22
2022-10-18T01:12:25.124Z,80.14
2022-10-18T01:15:05.752Z,79.72
2022-10-18T01:17:47.055Z,79.43
2022-10-18T01:20:52.613Z,79.27
2022-10-18T01:23:34.709Z,79.04
2022-10-18T01:26:20.256Z,79.10
2022-10-18T01:29:04.579Z,78.96
2022-10-18T01:31:43.367Z,78.97
2022-10-18T01:34:18.133Z,78.58
2022-10-18T01:36:52.868Z,78.65
2022-10-18T01:39:27.646Z,78.36
2022-10-18T01:42:01.592Z,78.14
2022-10-18T01:44:34.929Z,78.31
2022-10-18T01:47:12.244Z,78.19
2022-10-18T01:49:43.051Z,77.84
2022-10-18T01:52:16.129Z,78.13
2022-10-18T01:54:51.375Z,77.73
2022-10-18T01:57:32.099Z,77.83
2022-10-18T02:00:08.874Z,77.45
2022-10-18T02:02:52.292Z,77.67
2022-10-18T02:05:32.513Z,77.42
2022-10-18T02:08:22.790Z,77.46
2022-10-18T02:10:57.768Z,77.31
2022-10-18T02:13:33.774Z,77.52
2022-10-18T02:16:30.033Z,77.21
2022-10-18T02:19:08.681Z,76.86
2022-10-18T02:21:41.584Z,76.99
2022-10-18T02:24:14.419Z,76.85
2022-10-18T02:26:45.565Z,77.21
2022-10-18T02:29:16.659Z,77.10
2022-10-18T02:31:49.297Z,76.92
2022-10-18T02:34:26.082Z,76.91
2022-10-18T02:36:58.982Z,76.88
2022-10-18T02:39:33.614Z,77.22
2022-10-18T02:42:06.976Z,76.99
2022-10-18T02:44:38.425Z,76.86
2022-10-18T02:47:10.269Z,77.20
2022-10-18T02:49:43.614Z,76.93
2022-10-18T02:52:14.255Z,77.18
2022-10-18T02:54:44.876Z,77.21
2022-10-18T02:57:15.400Z,77.20
2022-10-18T02:59:45.992Z,77.58
2022-10-18T03:02:16.785Z,77.34
2022-10-18T03:04:50.007Z,77.17
2022-10-18T03:07:21.090Z,77.32
2022-10-18T03:09:51.812Z,77.25
2022-10-18T03:12:22.417Z,77.00
2022-10-18T03:14:52.983Z,76.95
2022-10-18T03:17:23.523Z,77.09
2022-10-18T03:19:56.730Z,77.20
2022-10-18T03:24:59.696Z,77.06
2022-10-18T03:27:30.537Z,76.83
2022-10-18T03:30:01.320Z,77.22
2022-10-18T03:32:33.476Z,77.27
2022-10-18T03:35:07.206Z,77.37
2022-10-18T03:37:38.074Z,76.99
2022-10-18T03:40:10.441Z,77.23
2022-10-18T03:42:42.294Z,77.36
2022-10-18T03:45:13.425Z,77.21
2022-10-18T03:47:44.003Z,77.60
2022-10-18T03:50:17.282Z,77.44
2022-10-18T03:52:48.027Z,77.27
2022-10-18T03:55:18.772Z,77.60
2022-10-18T03:57:49.350Z,77.21
2022-10-18T04:00:20.134Z,77.31
2022-10-18T04:02:53.451Z,77.51
2022-10-18T04:05:31.491Z,74.36
2022-10-18T04:08:02.153Z,74.00
2022-10-18T04:10:32.754Z,75.11
2022-10-18T04:13:03.364Z,77.87
2022-10-18T04:15:33.917Z,80.44
2022-10-18T04:18:05.361Z,82.00
2022-10-18T04:20:38.578Z,82.51
2022-10-18T04:23:09.106Z,83.35
2022-10-18T04:25:39.703Z,85.01
2022-10-18T04:28:10.370Z,86.75
2022-10-18T04:30:40.924Z,87.10
2022-10-18T04:33:11.581Z,88.70
2022-10-18T04:35:44.812Z,88.42
2022-10-18T04:38:15.939Z,88.12
2022-10-18T04:40:46.903Z,87.92
2022-10-18T04:43:17.562Z,87.90
2022-10-18T04:45:48.459Z,86.95
2022-10-18T04:48:19.016Z,86.78
2022-10-18T04:50:54.304Z,86.32
2022-10-18T04:53:24.884Z,85.85
2022-10-18T04:55:55.384Z,85.06
2022-10-18T04:58:25.976Z,84.77
2022-10-18T05:00:56.630Z,84.09
2022-10-18T05:03:27.114Z,83.72
2022-10-18T05:06:03.285Z,83.30
2022-10-18T05:08:35.120Z,83.11
2022-10-18T05:11:06.624Z,82.72
2022-10-18T05:13:38.497Z,82.59
2022-10-18T05:16:09.467Z,82.42
2022-10-18T05:18:40.101Z,82.29
2022-10-18T05:21:13.457Z,82.21
2022-10-18T05:23:44.283Z,82.04
2022-10-18T05:26:14.821Z,81.89
2022-10-18T05:28:45.393Z,82.17
2022-10-18T05:31:16.032Z,81.92
2022-10-18T05:33:46.819Z,81.86
2022-10-18T05:36:20.020Z,81.21
2022-10-18T05:38:50.685Z,81.34
2022-10-18T05:41:21.324Z,80.70
2022-10-18T05:43:52.061Z,80.58
2022-10-18T05:46:22.817Z,80.04
2022-10-18T05:48:53.982Z,79.91
2022-10-18T05:51:27.630Z,79.07
2022-10-18T05:53:59.038Z,79.02
2022-10-18T05:56:29.803Z,78.52
2022-10-18T05:59:00.363Z,78.27
2022-10-18T06:01:30.922Z,77.51
2022-10-18T06:04:01.489Z,77.84
2022-10-18T06:06:35.435Z,77.10
2022-10-18T06:09:06.572Z,76.87
2022-10-18T06:11:38.051Z,76.46
2022-10-18T06:14:08.597Z,75.66
2022-10-18T06:16:39.344Z,75.58
2022-10-18T06:19:09.950Z,74.61
2022-10-18T06:21:43.094Z,73.48
2022-10-18T06:24:13.624Z,72.66
2022-10-18T06:26:44.137Z,71.96
2022-10-18T06:29:14.866Z,70.99
2022-10-18T06:31:45.614Z,70.03
2022-10-18T06:34:16.199Z,68.58
2022-10-18T06:36:49.326Z,67.67
2022-10-18T06:39:19.917Z,66.94
2022-10-18T06:41:50.448Z,66.54
2022-10-18T06:44:23.456Z,65.01
2022-10-18T06:46:53.988Z,64.46
2022-10-18T06:49:24.572Z,62.76
2022-10-18T06:51:57.726Z,62.13
2022-10-18T06:54:28.257Z,61.21
2022-10-18T06:56:59.834Z,60.38
2022-10-18T06:59:31.386Z,59.10
2022-10-18T07:02:02.280Z,57.07
2022-10-18T07:04:33.205Z,56.79
2022-10-18T07:07:06.318Z,55.54
2022-10-18T07:09:36.861Z,54.70
2022-10-18T07:12:07.947Z,53.73
2022-10-18T07:14:38.485Z,52.69
2022-10-18T07:17:09.125Z,51.66
2022-10-18T07:19:39.667Z,50.61
2022-10-18T07:22:12.850Z,50.70
2022-10-18T07:24:43.366Z,49.81
2022-10-18T07:27:13.912Z,48.49
2022-10-18T07:29:44.737Z,48.15
2022-10-18T07:32:15.317Z,47.27
2022-10-18T07:34:45.890Z,46.46
2022-10-18T07:37:19.079Z,45.87
2022-10-18T07:39:49.673Z,45.60
2022-10-18T07:42:20.263Z,45.21
2022-10-18T07:44:50.851Z,44.96
2022-10-18T07:47:21.393Z,45.03
2022-10-18T07:49:51.931Z,45.05
2022-10-18T07:52:25.063Z,44.56
2022-10-18T07:54:55.786Z,45.28
2022-10-18T07:57:26.392Z,44.81
2022-10-18T07:59:57.588Z,44.66
2022-10-18T08:02:28.228Z,44.82
2022-10-18T08:04:58.776Z,45.35
2022-10-18T08:07:33.351Z,45.70
2022-10-18T08:10:04.199Z,45.39
2022-10-18T08:12:34.896Z,44.94
2022-10-18T08:15:05.478Z,44.73
2022-10-18T08:17:35.988Z,44.91
2022-10-18T08:20:19.178Z,44.86
2022-10-18T08:23:00.734Z,44.61
2022-10-18T08:25:31.655Z,44.48
2022-10-18T08:28:02.254Z,44.75
2022-10-18T08:30:32.783Z,44.61
2022-10-18T08:33:03.294Z,44.50
2022-10-18T08:35:34.040Z,44.40
2022-10-18T08:38:16.456Z,44.23
2022-10-18T08:40:49.056Z,43.91
2022-10-18T08:43:29.748Z,44.11
2022-10-18T08:46:00.691Z,44.20
2022-10-18T08:48:38.702Z,43.54
2022-10-18T08:51:20.028Z,42.75
2022-10-18T08:53:59.927Z,42.79
2022-10-18T08:56:30.710Z,43.15
2022-10-18T08:59:01.254Z,43.00
2022-10-18T09:01:42.700Z,42.55
2022-10-18T09:04:28.986Z,42.23
2022-10-18T09:07:15.603Z,41.91
2022-10-18T09:09:56.018Z,41.73
2022-10-18T09:12:58.880Z,41.08
2022-10-18T09:15:37.353Z,41.02
2022-10-18T09:18:19.171Z,39.28
2022-10-18T09:20:57.064Z,39.21
2022-10-18T09:23:40.814Z,39.25
2022-10-18T09:26:19.592Z,39.17
2022-10-18T09:29:13.850Z,38.31
2022-10-18T09:31:53.527Z,37.99
2022-10-18T09:34:31.053Z,38.08
2022-10-18T09:37:03.135Z,38.55
2022-10-18T09:39:36.803Z,38.71
2022-10-18T09:42:18.172Z,38.46
2022-10-18T09:44:52.084Z,38.60
2022-10-18T09:47:27.877Z,38.10
2022-10-18T09:50:02.259Z,38.08
2022-10-18T09:52:40.196Z,37.56
2022-10-18T09:55:18.673Z,37.00
2022-10-18T09:57:56.502Z,37.42
2022-10-18T10:00:32.938Z,36.68
2022-10-18T10:03:04.649Z,35.44
2022-10-18T10:05:35.732Z,36.55
2022-10-18T10:08:06.426Z,36.79
2022-10-18T10:10:38.691Z,35.53
2022-10-18T10:13:23.243Z,32.92
2022-10-18T10:15:57.875Z,34.40
2022-10-18T10:18:31.181Z,34.84
2022-10-18T10:21:03.688Z,34.79
2022-10-18T10:23:39.333Z,35.00
2022-10-18T10:26:25.182Z,33.33
2022-10-18T10:28:58.715Z,33.08
2022-10-18T10:31:31.437Z,34.57
2022-10-18T10:34:04.401Z,34.16
2022-10-18T10:36:36.507Z,34.25
2022-10-18T10:39:10.091Z,34.14
2022-10-18T10:41:43.256Z,34.21
2022-10-18T10:44:22.128Z,33.67
2022-10-18T10:46:55.073Z,34.45
2022-10-18T10:49:39.644Z,33.74
2022-10-18T10:52:28.825Z,32.87
2022-10-18T10:55:11.265Z,33.88
2022-10-18T10:57:49.212Z,33.36
2022-10-18T11:00:47.318Z,31.48
2022-10-18T11:03:29.160Z,32.00
2022-10-18T11:06:02.304Z,31.10
2022-10-18T11:08:39.064Z,29.78
2022-10-18T11:11:23.015Z,28.93
2022-10-18T11:14:13.810Z,27.97
2022-10-18T11:16:58.291Z,28.12
2022-10-18T11:19:41.376Z,27.96
2022-10-18T11:22:18.350Z,28.14
2022-10-18T11:24:49.099Z,28.14
2022-10-18T11:27:25.973Z,27.28
2022-10-18T11:30:17.367Z,26.98
2022-10-18T11:32:58.883Z,27.61
2022-10-18T11:35:42.948Z,26.90
2022-10-18T11:38:28.612Z,24.79
2022-10-18T11:41:13.611Z,23.45
2022-10-18T11:44:03.093Z,23.73
2022-10-18T11:47:00.475Z,21.97
2022-10-18T11:49:54.606Z,20.55
2022-10-18T11:52:34.233Z,22.61
2022-10-18T11:55:32.004Z,21.43
2022-10-18T11:58:11.860Z,22.04
2022-10-18T12:00:49.962Z,21.91
2022-10-18T12:03:41.793Z,20.46
2022-10-18T12:06:18.744Z,22.17
2022-10-18T12:08:52.474Z,21.93
2022-10-18T12:11:27.662Z,22.00
2022-10-18T12:14:01.244Z,21.30
2022-10-18T12:16:50.896Z,20.28
2022-10-18T12:19:26.898Z,19.96
2022-10-18T12:22:13.781Z,18.01
2022-10-18T12:24:45.198Z,19.36
2022-10-18T12:27:19.024Z,18.35
2022-10-18T12:29:56.533Z,18.83
2022-10-18T12:32:32.903Z,18.23
2022-10-18T12:35:08.174Z,18.64
2022-10-18T12:37:54.075Z,18.17
2022-10-18T12:40:27.587Z,20.30
2022-10-18T12:42:59.220Z,20.07
2022-10-18T12:45:35.565Z,20.32
2022-10-18T12:48:09.888Z,20.48
2022-10-18T12:50:42.343Z,21.16
2022-10-18T12:53:27.627Z,21.46
2022-10-18T12:56:19.884Z,20.98
2022-10-18T12:58:52.487Z,20.84
2022-10-18T13:01:23.133Z,21.80
2022-10-18T13:03:56.860Z,21.81
2022-10-18T13:06:27.921Z,22.09
2022-10-18T13:09:22.599Z,21.74
2022-10-18T13:11:57.498Z,22.16
2022-10-18T13:15:13.351Z,22.29
2022-10-18T13:17:52.724Z,22.64
2022-10-18T13:20:30.799Z,22.76
2022-10-18T13:23:21.819Z,22.85
2022-10-18T13:26:04.532Z,23.03
2022-10-18T13:28:43.274Z,23.40
2022-10-18T13:31:22.431Z,23.88
2022-10-18T13:33:53.229Z,23.57
2022-10-18T13:36:29.555Z,23.60
2022-10-18T13:39:06.256Z,23.26
2022-10-18T13:42:12.315Z,22.21
2022-10-18T13:44:43.765Z,22.44
2022-10-18T13:47:17.258Z,22.90
2022-10-18T13:50:21.894Z,23.43
2022-10-18T13:53:14.905Z,22.41
2022-10-18T13:56:08.319Z,23.28
2022-10-18T13:59:06.114Z,23.78
2022-10-18T14:01:57.811Z,23.21
2022-10-18T14:05:23.213Z,23.11
2022-10-18T14:07:56.184Z,23.92
2022-10-18T14:10:50.298Z,24.15
2022-10-18T14:13:27.725Z,24.60
2022-10-18T14:16:09.170Z,24.48
2022-10-18T14:18:44.360Z,24.82
2022-10-18T14:21:21.775Z,23.88
2022-10-18T14:23:54.475Z,25.38
2022-10-18T14:26:28.816Z,25.40
2022-10-18T14:29:08.084Z,25.16
2022-10-18T14:31:41.400Z,25.46
2022-10-18T14:34:18.443Z,25.26
2022-10-18T14:36:51.747Z,26.09
2022-10-18T14:39:25.424Z,26.68
2022-10-18T14:41:57.819Z,26.51
2022-10-18T14:44:30.043Z,26.89
2022-10-18T14:47:07.385Z,26.95
2022-10-18T14:49:45.856Z,27.44
2022-10-18T14:52:19.882Z,27.63
2022-10-18T14:54:52.119Z,27.98
2022-10-18T14:57:26.625Z,28.08
2022-10-18T15:00:02.302Z,28.40
2022-10-18T15:02:40.497Z,29.01
2022-10-18T15:05:17.773Z,29.37
2022-10-18T15:07:48.934Z,29.78
2022-10-18T15:10:21.821Z,30.07
2022-10-18T15:13:09.167Z,30.29
2022-10-18T15:15:41.271Z,30.71
2022-10-18T15:18:23.452Z,30.94
2022-10-18T15:21:13.273Z,31.00
2022-10-18T15:23:43.973Z,31.45
2022-10-18T15:26:18.476Z,31.30
2022-10-18T15:28:53.493Z,31.65
2022-10-18T15:31:28.584Z,32.07
2022-10-18T15:34:13.994Z,32.30
2022-10-18T15:36:44.762Z,32.71
2022-10-18T15:39:20.176Z,32.89
2022-10-18T15:41:52.923Z,33.01
2022-10-18T15:44:27.219Z,33.38
2022-10-18T15:46:59.952Z,33.47
2022-10-18T15:50:03.187Z,33.67
2022-10-18T15:52:53.819Z,33.80
2022-10-18T15:55:49.469Z,34.21
2022-10-18T15:58:25.776Z,34.02
2022-10-18T16:00:59.525Z,34.37
2022-10-18T16:03:30.988Z,34.36
2022-10-18T16:06:08.115Z,34.32
2022-10-18T16:08:43.811Z,34.69
2022-10-18T16:11:18.178Z,34.86
2022-10-18T16:13:49.083Z,35.44
2022-10-18T16:16:22.715Z,35.68
2022-10-18T16:18:54.085Z,35.93
2022-10-18T16:21:27.013Z,35.97
2022-10-18T16:24:00.742Z,36.16
2022-10-18T16:26:32.274Z,36.29
2022-10-18T16:29:03.899Z,36.35
2022-10-18T16:31:36.548Z,36.32
2022-10-18T16:34:07.120Z,36.56
2022-10-18T16:36:37.702Z,36.98
2022-10-18T16:39:17.763Z,36.86
2022-10-18T16:41:49.155Z,37.19
2022-10-18T16:44:19.821Z,37.27
2022-10-18T16:46:53.833Z,37.36
2022-10-18T16:49:27.829Z,37.70
2022-10-18T16:51:59.702Z,37.83
2022-10-18T16:54:35.935Z,38.27
2022-10-18T16:57:06.675Z,38.31
2022-10-18T16:59:37.320Z,38.44
2022-10-18T17:02:09.464Z,38.88
2022-10-18T17:04:40.143Z,38.85
2022-10-18T17:07:13.041Z,38.98
2022-10-18T17:09:46.380Z,39.24
2022-10-18T17:12:17.058Z,39.61
2022-10-18T17:14:47.684Z,39.82
2022-10-18T17:17:18.362Z,39.72
2022-10-18T17:19:48.970Z,40.31
2022-10-18T17:22:19.552Z,40.17
2022-10-18T17:24:52.835Z,40.46
2022-10-18T17:27:23.401Z,40.80
2022-10-18T17:29:54.056Z,41.04
2022-10-18T17:32:24.621Z,41.05
2022-10-18T17:34:55.224Z,41.28
2022-10-18T17:37:26.044Z,41.32
2022-10-18T17:39:59.474Z,41.51
2022-10-18T17:42:30.044Z,41.57
2022-10-18T17:45:00.740Z,41.79
2022-10-18T17:47:31.759Z,42.12
2022-10-18T17:50:02.573Z,42.43
2022-10-18T17:52:33.467Z,42.22
2022-10-18T17:55:07.206Z,42.56
2022-10-18T17:57:37.839Z,42.72
2022-10-18T18:00:12.128Z,42.99
2022-10-18T18:02:43.477Z,43.00
2022-10-18T18:05:14.595Z,43.29
2022-10-18T18:07:45.163Z,43.36
2022-10-18T18:10:18.673Z,43.83
2022-10-18T18:12:49.378Z,43.89
2022-10-18T18:15:20.207Z,43.79
2022-10-18T18:17:57.260Z,44.00
2022-10-18T18:20:28.501Z,46.48
2022-10-18T18:22:59.156Z,46.35
2022-10-18T18:25:32.601Z,50.43
2022-10-18T18:28:05.192Z,53.29
2022-10-18T18:33:57.067Z,55.46
2022-10-18T18:36:29.261Z,57.14
2022-10-18T18:38:59.917Z,57.57
2022-10-18T18:41:33.204Z,57.53
2022-10-18T18:44:05.909Z,57.91
2022-10-18T18:46:38.958Z,58.83
2022-10-18T18:49:10.551Z,57.37
2022-10-18T18:51:41.673Z,58.57
2022-10-18T18:54:14.944Z,60.24
2022-10-18T18:56:48.368Z,63.54
2022-10-18T18:59:19.103Z,66.24
2022-10-18T19:01:49.827Z,67.01
2022-10-18T19:04:20.538Z,67.62
2022-10-18T19:06:51.132Z,68.27
2022-10-18T19:09:22.845Z,68.94
2022-10-18T19:11:57.349Z,70.24
2022-10-18T19:14:29.235Z,71.61
2022-10-18T19:17:01.837Z,72.76
2022-10-18T19:19:34.361Z,73.46
2022-10-18T19:22:09.809Z,72.74
2022-10-18T19:24:40.657Z,71.21
2022-10-18T19:27:16.635Z,70.31
2022-10-18T19:29:49.121Z,69.85
2022-10-18T19:32:22.990Z,69.72
2022-10-18T19:34:57.212Z,71.43
2022-10-18T19:37:29.716Z,71.84
2022-10-18T19:40:01.820Z,72.27
2022-10-18T19:42:38.470Z,74.83
2022-10-18T19:45:11.255Z,74.98
2022-10-18T19:47:45.018Z,75.42
2022-10-18T19:50:15.869Z,74.53
2022-10-18T19:52:46.984Z,73.60
2022-10-18T19:55:19.812Z,72.50
2022-10-18T19:57:53.317Z,71.17
2022-10-18T20:00:24.165Z,72.96
2022-10-18T20:02:54.701Z,72.01
2022-10-18T20:05:25.415Z,73.35
2022-10-18T20:07:55.956Z,73.51
2022-10-18T20:10:26.529Z,73.67
2022-10-18T20:12:59.761Z,74.32
2022-10-18T20:15:30.442Z,76.55
2022-10-18T20:18:00.972Z,78.02
2022-10-18T20:20:31.648Z,78.41
2022-10-18T20:23:02.179Z,81.46
2022-10-18T20:25:32.928Z,76.39
2022-10-18T20:28:06.081Z,74.99
2022-10-18T20:30:36.730Z,73.50
2022-10-18T20:33:07.321Z,72.69
2022-10-18T20:35:37.957Z,71.88
2022-10-18T20:38:08.576Z,71.75
2022-10-18T20:40:39.173Z,71.70
2022-10-18T20:43:12.564Z,69.70
2022-10-18T20:45:43.335Z,69.75
2022-10-18T20:48:13.843Z,68.55
2022-10-18T20:50:45.171Z,68.29
2022-10-18T20:53:15.748Z,69.05
2022-10-18T20:55:46.571Z,67.98
2022-10-18T20:58:20.105Z,67.03
2022-10-18T21:00:50.656Z,68.76
2022-10-18T21:03:21.198Z,70.82
2022-10-18T21:05:51.900Z,69.09
2022-10-18T21:08:22.481Z,67.69
2022-10-18T21:10:53.029Z,68.26
2022-10-18T21:13:26.161Z,70.53
2022-10-18T21:16:00.357Z,71.07
2022-10-18T21:18:31.486Z,69.11
2022-10-18T21:21:11.146Z,68.99
2022-10-18T21:23:42.076Z,70.99
2022-10-18T21:26:17.645Z,72.36
2022-10-18T21:28:50.551Z,73.41
2022-10-18T21:31:23.479Z,70.96
2022-10-18T21:33:56.558Z,70.43
2022-10-18T21:36:27.502Z,71.94
2022-10-18T21:38:58.046Z,73.32
2022-10-18T21:41:29.166Z,73.28
2022-10-18T21:44:05.575Z,72.38
2022-10-18T21:46:39.477Z,72.30
2022-10-18T21:49:10.856Z,73.82
2022-10-18T21:51:41.743Z,74.25
2022-10-18T21:54:16.260Z,74.92
2022-10-18T21:56:47.949Z,75.01
2022-10-18T21:59:21.093Z,75.49
2022-10-18T22:01:51.849Z,74.55
2022-10-18T22:04:24.866Z,73.50
2022-10-18T22:06:55.462Z,74.36
2022-10-18T22:09:26.083Z,75.43
2022-10-18T22:11:57.106Z,75.63
2022-10-18T22:14:30.420Z,75.98
2022-10-18T22:17:00.970Z,74.94
2022-10-18T22:19:31.781Z,74.25
2022-10-18T22:22:02.573Z,73.65
2022-10-18T22:24:33.181Z,72.91
2022-10-18T22:27:04.026Z,72.61
2022-10-18T22:29:37.309Z,72.10
2022-10-18T22:32:08.332Z,71.77
2022-10-18T22:34:38.978Z,71.83
2022-10-18T22:37:09.482Z,71.61
2022-10-18T22:39:40.096Z,71.37
2022-10-18T22:42:10.622Z,70.78
2022-10-18T22:44:43.753Z,70.47
2022-10-18T22:47:14.466Z,70.58
2022-10-18T22:49:45.105Z,70.48
2022-10-18T22:52:15.979Z,70.30
2022-10-18T22:54:46.765Z,70.13
2022-10-18T22:57:17.500Z,70.29
2022-10-18T22:59:50.799Z,70.08
2022-10-18T23:02:21.388Z,70.51
2022-10-18T23:04:52.013Z,70.40
2022-10-18T23:07:22.547Z,70.41
2022-10-18T23:09:53.199Z,70.25
2022-10-18T23:12:23.931Z,70.25
2022-10-18T23:14:57.097Z,69.44
2022-10-18T23:17:27.692Z,69.46
2022-10-18T23:19:58.447Z,69.05
2022-10-18T23:22:29.060Z,69.45
2022-10-18T23:24:59.629Z,69.81
2022-10-18T23:27:31.752Z,69.92
2022-10-18T23:30:04.974Z,70.04
2022-10-18T23:32:35.882Z,69.93
2022-10-18T23:35:06.895Z,69.67
2022-10-18T23:37:37.669Z,69.61
2022-10-18T23:40:09.591Z,69.44
2022-10-18T23:42:40.165Z,70.09
2022-10-18T23:45:14.177Z,69.81
2022-10-18T23:47:44.749Z,70.01
2022-10-18T23:50:15.361Z,70.05
2022-10-18T23:52:46.003Z,70.05
2022-10-18T23:55:16.663Z,70.04
2022-10-18T23:57:47.460Z,69.89
